Time;durP1;ratioP1;P1;durP2;ratioP2;P2;SDS_P1;SDS_P2;PMS_P1;PMS_P2;Temp;Humidity;BMP_temperature;BMP_pressure;BME280_temperature;BME280_humidity;BME280_pressure;Samples;Min_cycle;Max_cycle;Signal;HPM_P1;HPM_P2
2022/01/28 00:01:46;;;;;;;8.75;2.40;;;9.10;58.30;;;7.44;65.17;100894.16;8414598;28;20119;-79
2022/01/28 00:06:08;;;;;;;3.45;1.20;;;9.10;58.30;;;7.25;65.59;100882.81;8424633;28;20127;-80
2022/01/28 00:10:31;;;;;;;6.10;2.20;;;9.10;58.40;;;7.34;65.29;100886.78;8419196;28;20123;-80
2022/01/28 00:15:07;;;;;;;6.53;1.63;;;8.90;58.30;;;7.44;65.29;100909.75;8430279;28;20114;-79
2022/01/28 00:38:13;;;;;;;6.53;2.30;;;9.00;57.70;;;7.51;65.48;100926.78;8419752;28;20051;-79
2022/01/28 00:42:35;;;;;;;4.28;1.27;;;9.10;58.00;;;7.49;65.35;100925.16;8423856;28;20118;-80
2022/01/28 00:46:57;;;;;;;6.82;1.20;;;9.10;58.00;;;7.56;65.21;100938.75;8429693;28;20135;-80
2022/01/28 00:51:18;;;;;;;7.40;2.15;;;9.10;57.90;;;7.47;65.18;100916.56;8415473;28;20042;-79
2022/01/28 00:55:40;;;;;;;3.85;1.40;;;9.10;57.70;;;7.53;64.92;100943.19;8428047;28;20545;-80
2022/01/28 01:00:06;;;;;;;8.02;1.90;;;9.20;58.20;;;7.57;65.22;100951.69;8415675;28;20127;-79
2022/01/28 01:04:27;;;;;;;5.65;1.23;;;9.20;57.70;;;7.49;65.23;100933.81;8420956;28;20115;-80
2022/01/28 01:08:49;;;;;;;8.38;2.55;;;9.00;58.00;;;7.47;65.16;100960.75;8422454;28;20040;-80
2022/01/28 01:13:11;;;;;;;4.97;1.27;;;9.20;57.60;;;7.59;64.81;100985.41;8409745;28;20126;-80
2022/01/28 01:17:51;;;;;;;4.30;1.77;;;9.20;57.70;;;7.55;64.86;100974.28;8431413;28;20119;-80
2022/01/28 01:22:13;;;;;;;9.50;2.03;;;9.20;57.90;;;7.55;64.76;100995.06;8416702;28;20119;-80
2022/01/28 01:26:38;;;;;;;7.75;1.90;;;9.20;57.70;;;7.44;65.03;100979.91;8428394;28;20119;-79
2022/01/28 01:31:03;;;;;;;5.18;1.63;;;9.20;57.60;;;7.52;64.58;101006.44;8403056;28;20122;-79
2022/01/28 01:35:25;;;;;;;7.03;1.73;;;9.20;57.60;;;7.42;64.94;100992.09;8409044;28;20040;-80
2022/01/28 01:39:47;;;;;;;3.20;1.48;;;9.20;57.50;;;7.54;65.01;101029.78;8388355;28;20035;-79
2022/01/28 01:44:25;;;;;;;7.50;2.30;;;9.20;57.60;;;7.53;65.02;101030.66;8415730;28;20123;-79
2022/01/28 01:53:27;;;;;;;8.90;1.77;;;9.20;57.90;;;7.58;64.81;101044.34;8415278;28;20123;-80
2022/01/28 01:57:49;;;;;;;6.13;2.05;;;9.20;57.70;;;7.58;64.52;101043.50;8404476;28;20040;-80
2022/01/28 02:02:12;;;;;;;7.80;1.90;;;9.20;57.30;;;7.40;64.43;101038.09;8416245;28;20464;-80
2022/01/28 02:06:33;;;;;;;4.00;1.35;;;9.20;57.40;;;7.43;64.75;101050.13;8414751;28;20124;-80
2022/01/28 02:10:57;;;;;;;5.68;2.40;;;9.20;57.70;;;7.50;64.64;101070.59;8380440;28;20034;-80
2022/01/28 02:15:19;;;;;;;5.50;1.58;;;9.20;57.40;;;7.49;64.58;101062.88;8405240;28;20119;-79
2022/01/28 02:19:41;;;;;;;4.55;1.48;;;9.20;57.50;;;7.59;64.44;101102.34;8421591;28;20115;-79
2022/01/28 02:24:05;;;;;;;8.05;1.80;;;9.20;57.80;;;7.57;64.75;101098.97;8409161;28;20117;-80
2022/01/28 02:28:31;;;;;;;6.65;1.90;;;9.20;57.40;;;7.38;64.69;101063.28;8423854;28;20127;-79
2022/01/28 02:32:58;;;;;;;;;;;9.10;57.30;;;7.54;64.67;101105.97;8421613;28;20119;-80
2022/01/28 02:37:20;;;;;;;6.63;2.03;;;9.20;56.70;;;7.46;64.33;101108.00;8406123;28;19922;-79
2022/01/28 02:41:45;;;;;;;7.85;1.75;;;9.10;57.30;;;7.48;64.80;101128.72;8416025;28;20124;-80
2022/01/28 02:46:11;;;;;;;5.72;1.77;;;9.10;57.20;;;7.40;64.35;101104.75;8415742;28;20119;-80
2022/01/28 02:50:45;;;;;;;7.68;1.88;;;9.10;57.40;;;7.51;64.57;101124.28;8415408;28;20037;-79
2022/01/28 02:55:11;;;;;;;2.95;1.65;;;9.10;57.40;;;7.40;64.20;101109.97;8416212;28;20032;-80
2022/01/28 02:59:32;;;;;;;6.85;1.95;;;9.10;57.50;;;7.50;64.17;101142.50;8423014;28;20131;-80
2022/01/28 03:03:55;;;;;;;8.35;2.70;;;9.10;57.20;;;7.38;64.29;101129.97;8420667;28;20143;-79
2022/01/28 03:08:22;;;;;;;8.57;2.05;;;9.10;57.00;;;7.46;64.08;101149.59;8417566;28;20122;-79
2022/01/28 03:13:03;;;;;;;3.58;1.48;;;9.10;57.40;;;7.45;64.08;101166.09;8430242;28;20135;-79
2022/01/28 03:21:56;;;;;;;10.60;1.90;;;9.00;57.50;;;7.26;64.47;101158.09;8418437;28;20115;-80
2022/01/28 03:26:19;;;;;;;5.20;1.77;;;9.00;58.10;;;7.22;64.33;101164.28;8418160;28;20495;-80
2022/01/28 03:30:41;;;;;;;5.15;1.63;;;9.00;57.90;;;7.28;64.12;101184.00;8397549;28;20037;-80
2022/01/28 03:35:05;;;;;;;6.82;1.58;;;8.90;57.80;;;7.22;64.21;101182.44;8414368;28;20122;-80
2022/01/28 03:39:26;;;;;;;4.05;1.60;;;8.90;58.00;;;7.30;64.22;101203.81;8424959;28;20552;-80
2022/01/28 03:43:49;;;;;;;6.15;2.08;;;8.80;58.00;;;7.26;64.08;101203.97;8433073;28;20115;-80
2022/01/28 03:48:10;;;;;;;5.22;1.63;;;8.80;58.00;;;7.26;64.64;101211.75;8438363;28;20119;-80
2022/01/28 03:52:32;;;;;;;7.32;2.00;;;8.80;58.00;;;7.28;64.66;101228.16;8419080;28;20032;-80
2022/01/28 03:56:54;;;;;;;5.65;1.98;;;8.90;57.90;;;7.28;64.16;101235.94;8421703;28;20511;-80
2022/01/28 04:01:20;;;;;;;3.13;1.13;;;8.80;58.00;;;7.24;64.44;101230.00;8407275;28;20103;-80
2022/01/28 04:15:07;;;;;;;5.18;1.80;;;8.90;58.00;;;7.26;64.53;101238.63;8416270;28;20115;-79
2022/01/28 04:19:29;;;;;;;6.80;1.52;;;8.80;57.70;;;7.17;64.56;101249.28;8421036;28;20118;-80
2022/01/28 04:23:51;;;;;;;5.50;1.75;;;8.90;57.70;;;7.22;64.07;101247.38;8420003;28;20565;-80
2022/01/28 04:28:12;;;;;;;5.82;1.42;;;8.80;57.80;;;7.30;64.03;101257.53;8421770;28;20126;-80
2022/01/28 04:32:35;;;;;;;6.20;1.75;;;8.70;57.80;;;7.25;64.01;101262.03;8414898;28;20131;-79
2022/01/28 04:37:10;;;;;;;5.25;1.80;;;8.90;57.40;;;7.30;64.46;101273.13;8427125;28;20127;-79
2022/01/28 04:41:42;;;;;;;4.57;1.50;;;8.90;57.00;;;7.19;64.41;101252.69;8418091;28;20123;-79
2022/01/28 04:46:15;;;;;;;4.70;1.55;;;8.90;57.30;;;7.32;64.25;101269.56;8410897;28;20058;-79
2022/01/28 04:50:49;;;;;;;4.68;1.58;;;8.90;57.00;;;7.34;64.06;101279.06;8406797;28;20449;-79
2022/01/28 04:55:46;;;;;;;5.43;1.58;;;8.90;57.10;;;7.30;63.90;101301.69;8394120;28;20517;-79
2022/01/28 05:00:23;;;;;;;6.25;2.28;;;8.90;57.10;;;7.21;64.02;101291.56;8401785;28;20043;-78
2022/01/28 05:04:58;;;;;;;6.30;1.75;;;8.90;56.90;;;7.34;64.38;101315.44;8423357;28;20036;-79
2022/01/28 05:23:24;;;;;;;6.38;2.10;;;9.00;56.80;;;7.41;63.46;101356.75;8422028;28;20115;-79
2022/01/28 05:27:48;;;;;;;2.78;1.63;;;9.20;56.90;;;7.32;64.19;101351.84;8417203;28;20115;-78
2022/01/28 05:32:11;;;;;;;3.45;1.45;;;9.00;56.80;;;7.35;64.04;101356.97;8404453;28;20050;-79
2022/01/28 05:36:34;;;;;;;8.05;2.45;;;9.00;56.60;;;7.32;63.94;101364.84;8395348;28;20440;-79
2022/01/28 05:40:56;;;;;;;7.22;2.25;;;9.00;56.60;;;7.45;63.84;101386.94;8392543;28;20028;-79
2022/01/28 05:45:17;;;;;;;9.15;1.90;;;9.00;56.50;;;7.41;63.34;101393.13;8408507;28;20118;-80
2022/01/28 05:49:41;;;;;;;3.42;1.33;;;9.00;56.70;;;7.45;63.53;101407.75;8400246;28;20140;-79
2022/01/28 05:54:03;;;;;;;6.63;2.15;;;8.90;56.70;;;7.42;63.37;101407.81;8379631;28;20130;-79
2022/01/28 05:58:24;;;;;;;5.13;1.42;;;9.00;56.00;;;7.48;63.16;101425.84;8405122;27;20485;-79
2022/01/28 06:02:49;;;;;;;5.45;1.70;;;9.10;56.50;;;7.41;63.24;101416.50;8368497;28;20064;-80
2022/01/28 06:07:11;;;;;;;4.63;1.63;;;9.10;56.60;;;7.38;63.76;101423.56;8369332;28;20036;-79
2022/01/28 06:11:33;;;;;;;5.35;1.58;;;9.10;56.40;;;7.41;63.29;101439.06;8361304;28;20032;-79
2022/01/28 06:15:56;;;;;;;3.97;1.48;;;9.10;56.30;;;7.37;63.23;101448.69;8369807;28;20033;-79
2022/01/28 06:20:19;;;;;;;10.70;1.90;;;9.00;56.00;;;7.47;63.33;101470.88;8384915;28;20094;-79
2022/01/28 06:24:41;;;;;;;10.73;2.40;;;9.30;55.90;;;7.51;63.31;101490.69;8374680;28;20029;-79
2022/01/28 06:29:02;;;;;;;8.00;3.13;;;9.10;55.90;;;7.52;63.21;101515.78;8386699;28;20437;-84
2022/01/28 06:33:24;;;;;;;7.03;2.20;;;9.10;56.20;;;7.47;63.18;101511.63;8410183;28;20124;-78
2022/01/28 06:37:46;;;;;;;6.43;1.60;;;9.10;56.10;;;7.40;63.46;101503.16;8395032;28;20041;-80
2022/01/28 06:42:08;;;;;;;7.82;2.08;;;9.10;56.20;;;7.47;62.99;101524.59;8398812;28;20135;-79
2022/01/28 06:46:30;;;;;;;7.53;2.17;;;9.10;56.20;;;7.42;62.96;101536.88;8381625;28;20140;-79
2022/01/28 06:50:51;;;;;;;6.25;2.08;;;9.10;56.00;;;7.47;63.35;101542.81;8375695;28;20111;-79
2022/01/28 06:55:16;;;;;;;9.57;2.75;;;9.10;56.20;;;7.51;63.34;101562.63;8376306;28;20041;-79
2022/01/28 06:59:37;;;;;;;4.90;1.40;;;9.10;56.30;;;7.51;63.31;101566.06;8369183;28;20035;-79
2022/01/28 07:04:00;;;;;;;6.78;2.70;;;9.10;56.20;;;7.47;63.50;101582.63;8387582;28;20024;-78
2022/01/28 07:08:23;;;;;;;6.22;1.85;;;9.10;56.00;;;7.48;62.88;101599.06;8415454;28;20122;-78
2022/01/28 07:12:45;;;;;;;7.13;1.58;;;9.10;56.40;;;7.50;63.39;101613.72;8410324;28;20132;-78
2022/01/28 07:17:07;;;;;;;6.65;1.65;;;9.10;56.30;;;7.50;62.82;101615.47;8413719;28;20040;-78
2022/01/28 07:21:28;;;;;;;5.40;1.80;;;9.10;56.00;;;7.47;62.75;101616.41;8407561;28;20036;-78
2022/01/28 07:25:50;;;;;;;9.38;2.42;;;9.00;55.90;;;7.45;62.99;101627.75;8410675;27;20040;-78
2022/01/28 07:30:15;;;;;;;5.82;1.83;;;9.10;55.70;;;7.51;63.18;101650.97;8390841;28;21062;-78
2022/01/28 07:34:37;;;;;;;6.40;2.30;;;9.40;56.10;;;7.44;63.15;101637.28;8420514;28;20042;-79
2022/01/28 07:38:59;;;;;;;6.65;2.20;;;9.10;56.20;;;7.49;62.67;101665.75;8379627;28;20179;-79
2022/01/28 07:43:20;;;;;;;8.30;2.17;;;9.10;56.00;;;7.37;62.60;101660.88;8388208;28;20046;-79
2022/01/28 07:47:44;;;;;;;7.40;2.10;;;9.10;55.70;;;7.43;62.92;101690.16;8390222;28;20040;-79
2022/01/28 07:52:06;;;;;;;4.97;1.80;;;9.00;55.80;;;7.35;63.22;101706.84;8428127;28;20051;-79
2022/01/28 07:56:28;;;;;;;6.72;1.95;;;9.00;55.90;;;7.40;62.58;101717.97;8376139;28;20451;-79
2022/01/28 08:00:50;;;;;;;5.25;1.85;;;9.00;56.00;;;7.38;62.82;101730.16;8399178;28;20038;-79
2022/01/28 08:05:12;;;;;;;7.70;2.75;;;9.00;55.90;;;7.38;62.51;101737.97;8382501;28;20042;-79
2022/01/28 08:09:34;;;;;;;5.82;1.90;;;8.90;55.80;;;7.34;62.77;101737.16;8406259;28;20035;-80
2022/01/28 08:13:56;;;;;;;10.93;1.88;;;9.00;56.00;;;7.21;62.59;101722.78;8388332;28;20051;-79
2022/01/28 08:18:17;;;;;;;5.72;1.38;;;9.00;56.10;;;7.33;62.92;101758.84;8395954;28;20046;-79
2022/01/28 08:22:52;;;;;;;7.93;2.30;;;8.90;56.00;;;7.24;62.85;101761.69;8392777;28;20042;-79
2022/01/28 08:27:13;;;;;;;9.43;1.63;;;9.00;55.50;;;7.30;62.72;101790.09;8417109;28;20107;-79
2022/01/28 08:31:36;;;;;;;7.55;2.72;;;8.90;55.70;;;7.09;62.97;101768.09;8393956;28;20272;-79
2022/01/28 08:35:58;;;;;;;3.78;1.52;;;8.90;55.60;;;7.18;62.80;101788.63;8404290;28;20031;-79
2022/01/28 08:40:20;;;;;;;8.75;2.35;;;8.90;55.90;;;7.24;62.97;101805.84;8376800;28;20036;-79
2022/01/28 08:44:42;;;;;;;12.48;2.63;;;8.90;55.90;;;7.21;62.87;101805.91;8419755;28;20038;-78
2022/01/28 08:49:04;;;;;;;5.00;2.03;;;8.90;55.90;;;7.25;62.46;101811.00;8382087;28;20044;-79
2022/01/28 08:53:26;;;;;;;11.10;2.35;;;8.90;56.10;;;7.24;62.80;101830.09;8420432;28;20527;-79
2022/01/28 08:57:47;;;;;;;7.03;1.83;;;8.80;55.80;;;7.18;63.02;101818.97;8387975;28;20043;-78
2022/01/28 09:02:09;;;;;;;10.23;2.67;;;8.80;56.30;;;7.27;62.57;101836.94;8399449;28;20045;-78
2022/01/28 09:06:31;;;;;;;6.72;1.88;;;8.90;55.50;;;7.25;62.78;101851.72;8391326;28;20498;-78
2022/01/28 09:15:38;;;;;;;10.13;2.05;;;8.80;55.40;;;6.99;62.85;101818.53;8391535;28;20058;-79
2022/01/28 09:20:01;;;;;;;9.52;2.70;;;8.80;55.80;;;7.15;62.50;101847.59;8400213;28;20527;-79
2022/01/28 09:24:23;;;;;;;12.98;2.35;;;8.70;55.20;;;7.30;62.44;101883.63;8381460;28;20042;-79
2022/01/28 09:28:45;;;;;;;10.23;2.72;;;8.90;55.50;;;7.32;62.25;101892.25;8390535;28;20042;-79
2022/01/28 09:33:07;;;;;;;8.18;2.13;;;8.90;55.50;;;7.23;62.70;101867.31;8409197;28;20040;-79
2022/01/28 09:37:29;;;;;;;12.38;2.15;;;9.00;55.70;;;7.35;62.44;101897.38;8379888;28;20028;-78
2022/01/28 09:41:59;;;;;;;5.28;1.80;;;8.90;55.40;;;7.31;62.42;101901.78;8403343;28;20404;-79
2022/01/28 09:46:21;;;;;;;8.75;1.95;;;8.90;55.60;;;7.24;62.54;101894.19;8392439;28;20328;-79
2022/01/28 09:50:44;;;;;;;6.82;1.98;;;9.00;55.70;;;7.23;62.43;101888.09;8403932;28;20043;-79
2022/01/28 09:55:07;;;;;;;10.95;2.45;;;9.00;55.70;;;7.41;62.63;101923.22;8379314;28;20036;-79
2022/01/28 09:59:29;;;;;;;4.78;2.15;;;9.00;55.70;;;7.47;62.21;101945.63;8399261;28;20028;-79
2022/01/28 10:04:04;;;;;;;8.32;2.40;;;9.00;55.20;;;7.40;61.98;101963.09;8382906;28;20035;-79
2022/01/28 10:08:28;;;;;;;14.30;2.58;;;9.00;55.00;;;7.35;62.36;101953.69;8403906;28;20120;-79
2022/01/28 10:13:13;;;;;;;5.45;2.08;;;9.00;55.30;;;7.43;61.92;101980.38;8402576;28;20037;-79
2022/01/28 10:17:58;;;;;;;5.10;1.63;;;9.10;54.80;;;7.44;61.94;101990.72;8404277;28;20508;-80
2022/01/28 10:22:20;;;;;;;6.82;2.83;;;8.90;55.10;;;7.50;62.37;101993.16;8396640;28;20111;-83
2022/01/28 10:26:55;;;;;;;8.98;2.15;;;9.10;55.20;;;7.50;62.01;102000.97;8408787;28;20038;-79
2022/01/28 10:31:16;;;;;;;9.45;2.38;;;9.10;54.90;;;7.51;62.40;102013.09;8393441;28;20115;-79
2022/01/28 10:35:39;;;;;;;8.20;2.08;;;9.00;55.30;;;7.56;62.36;102019.91;8406990;28;20603;-79
2022/01/28 10:40:08;;;;;;;9.18;2.03;;;9.20;55.30;;;7.59;62.55;102014.66;8397100;28;20028;-79
2022/01/28 10:44:31;;;;;;;6.55;1.70;;;9.20;55.10;;;7.62;62.00;102014.59;8420732;28;20111;-79
2022/01/28 10:49:01;;;;;;;13.07;1.88;;;9.20;55.50;;;7.57;62.07;101995.66;8386017;28;20047;-79
2022/01/28 10:53:25;;;;;;;8.63;2.00;;;9.20;55.30;;;7.60;61.84;102009.44;8383252;28;20062;-79
2022/01/28 10:58:06;;;;;;;6.95;2.08;;;9.30;55.30;;;7.59;62.06;102005.13;8396721;28;20040;-79
2022/01/28 11:02:29;;;;;;;2.90;1.38;;;9.20;55.40;;;7.68;61.99;102032.66;8394991;28;20036;-79
2022/01/28 11:06:54;;;;;;;8.02;1.98;;;9.20;55.50;;;7.63;62.32;101987.72;8389815;28;20028;-79
2022/01/28 11:11:16;;;;;;;3.40;2.05;;;9.30;55.40;;;7.90;62.16;102022.63;8408363;28;20040;-79
2022/01/28 11:15:38;;;;;;;7.80;1.73;;;9.30;55.30;;;7.78;62.14;101995.19;8395101;28;20416;-79
2022/01/28 11:20:00;;;;;;;7.60;2.13;;;9.40;55.20;;;7.94;62.18;102026.88;8413191;28;20053;-79
2022/01/28 11:24:55;;;;;;;5.57;2.08;;;9.70;55.00;;;8.04;61.65;102027.50;8394560;28;20503;-79
2022/01/28 11:29:25;;;;;;;5.97;2.13;;;9.70;55.00;;;8.12;61.82;102039.44;8405915;28;20497;-79
2022/01/28 11:33:50;;;;;;;7.30;1.98;;;9.80;55.00;;;8.19;61.75;102063.56;8391566;28;20047;-79
2022/01/28 11:38:39;;;;;;;6.45;1.55;;;9.60;54.70;;;8.14;61.74;102071.47;8402112;28;20044;-79
2022/01/28 11:43:19;;;;;;;5.70;2.00;;;9.80;54.50;;;8.17;61.60;102086.16;8387273;28;20515;-80
2022/01/28 11:47:56;;;;;;;3.45;1.67;;;9.80;54.70;;;8.18;61.84;102088.75;8410061;28;20111;-78
2022/01/28 11:52:29;;;;;;;8.60;2.20;;;9.80;54.70;;;8.17;61.62;102093.97;8401854;28;20043;-83
2022/01/28 11:56:57;;;;;;;4.88;1.52;;;10.10;54.60;;;8.15;61.81;102093.16;8419733;28;20047;-79
2022/01/28 12:01:46;;;;;;;5.13;1.85;;;9.70;54.50;;;8.20;61.67;102101.72;8401031;28;20564;-79
2022/01/28 12:06:09;;;;;;;2.88;1.52;;;9.70;54.50;;;8.18;61.53;102106.97;8413315;28;20127;-81
2022/01/28 12:10:35;;;;;;;4.35;1.50;;;9.80;54.80;;;8.22;61.38;102115.53;8404504;28;20036;-78
2022/01/28 12:15:08;;;;;;;5.20;1.63;;;9.90;54.40;;;8.20;61.59;102112.13;8412971;28;20110;-78
2022/01/28 12:19:31;;;;;;;5.60;1.48;;;9.80;54.80;;;8.25;61.70;102112.88;8412974;28;20402;-78
2022/01/28 12:24:15;;;;;;;3.72;1.58;;;9.90;55.00;;;8.31;61.44;102125.72;8388083;28;20532;-78
2022/01/28 12:28:37;;;;;;;6.03;1.73;;;9.90;54.80;;;8.35;61.65;102132.59;8418325;28;20119;-78
2022/01/28 12:33:00;;;;;;;5.25;1.42;;;10.00;54.90;;;8.32;61.43;102100.59;8409914;28;20115;-78
2022/01/28 12:37:24;;;;;;;1.75;0.98;;;10.00;54.80;;;8.29;61.63;102104.13;8412357;28;20046;-78
2022/01/28 12:41:56;;;;;;;2.00;0.93;;;10.00;55.00;;;8.43;60.97;102121.19;8408032;28;20463;-78
2022/01/28 12:46:19;;;;;;;4.18;1.55;;;10.00;54.60;;;8.45;61.27;102130.63;8396127;28;20035;-79
2022/01/28 12:50:50;;;;;;;7.53;1.77;;;9.80;55.00;;;8.40;61.39;102122.97;8403558;28;20092;-78
2022/01/28 12:55:12;;;;;;;4.65;1.00;;;10.10;54.90;;;8.38;61.12;102122.09;8397003;28;20127;-78
2022/01/28 12:59:34;;;;;;;1.75;1.17;;;10.10;54.80;;;8.43;61.31;102142.00;8404875;28;20043;-78
2022/01/28 13:04:17;;;;;;;3.53;1.52;;;10.10;54.60;;;8.41;61.20;102142.88;8390636;28;20103;-78
2022/01/28 13:08:42;;;;;;;5.75;1.70;;;10.10;54.40;;;8.46;61.31;102148.00;8375587;28;20046;-77
2022/01/28 13:13:09;;;;;;;2.58;1.42;;;10.00;54.90;;;8.30;61.40;102118.81;8412085;28;20603;-78
2022/01/28 13:17:31;;;;;;;4.10;1.75;;;10.10;54.90;;;8.34;61.06;102122.19;8403170;28;20400;-78
2022/01/28 13:21:54;;;;;;;3.05;1.25;;;10.10;54.70;;;8.56;60.90;102164.22;8415213;28;20119;-78
2022/01/28 13:26:16;;;;;;;3.42;1.02;;;10.10;54.50;;;8.61;61.15;102160.66;8391116;28;20131;-78
2022/01/28 13:30:40;;;;;;;4.90;1.23;;;10.10;54.60;;;8.63;61.13;102147.59;8415466;28;20059;-78
2022/01/28 13:35:02;;;;;;;2.92;1.10;;;10.20;54.60;;;8.48;61.21;102129.72;8392123;28;20114;-78
2022/01/28 13:39:28;;;;;;;7.10;1.30;;;10.20;54.80;;;8.48;61.06;102134.91;8411598;28;20039;-77
2022/01/28 13:43:50;;;;;;;3.25;1.35;;;10.10;54.60;;;8.68;61.10;102183.94;8407874;28;20177;-79
2022/01/28 13:48:22;;;;;;;9.15;1.45;;;10.20;54.50;;;8.67;61.08;102196.09;8396837;28;20120;-81
2022/01/28 13:52:50;;;;;;;2.05;1.17;;;10.30;54.60;;;8.64;60.95;102191.81;8415522;28;20109;-78
2022/01/28 13:57:13;;;;;;;6.47;2.33;;;10.30;54.50;;;8.54;61.20;102169.50;8399901;28;20111;-78
2022/01/28 14:01:35;;;;;;;5.00;1.35;;;10.30;54.50;;;8.62;61.05;102193.59;8405173;28;20488;-78
2022/01/28 14:06:02;;;;;;;4.15;1.20;;;10.30;54.40;;;8.67;60.71;102203.91;8369286;28;20543;-79
2022/01/28 14:10:24;;;;;;;7.22;1.35;;;10.20;54.40;;;8.71;60.72;102212.50;8382745;28;20139;-79
2022/01/28 14:14:47;;;;;;;6.25;1.55;;;10.20;54.00;;;8.65;60.88;102226.53;8387454;28;20042;-79
2022/01/28 14:18:49;;;;;;;4.55;1.63;;;10.30;54.40;;;8.68;60.90;102244.69;8375158;28;20036;-79
2022/01/28 14:22:51;;;;;;;4.68;1.48;;;10.20;53.90;;;8.61;60.72;102222.28;8376290;28;20126;-80
2022/01/28 14:27:45;;;;;;;3.75;1.42;;;10.30;54.30;;;8.61;60.68;102238.78;8322300;28;20406;-84
2022/01/28 14:31:52;;;;;;;4.88;1.23;;;10.30;54.30;;;8.66;60.28;102249.06;8450160;27;20343;-77
2022/01/28 14:36:10;;;;;;;2.72;1.17;;;10.20;54.20;;;8.68;60.85;102251.66;8448927;27;20499;-77
2022/01/28 14:40:26;;;;;;;3.25;1.30;;;10.30;54.30;;;8.57;60.66;102246.69;8409401;28;20046;-77
2022/01/28 14:44:31;;;;;;;4.80;1.00;;;10.30;54.00;;;8.69;60.49;102267.22;8414869;28;20039;-77
2022/01/28 14:48:33;;;;;;;2.88;1.00;;;10.10;53.70;;;8.67;60.59;102274.22;8418326;28;20111;-77
2022/01/28 14:52:35;;;;;;;2.08;1.00;;;10.30;54.00;;;8.65;60.19;102278.59;8417006;28;20036;-77
2022/01/28 14:56:37;;;;;;;2.53;0.95;;;10.30;53.90;;;8.62;60.61;102283.88;8418711;28;20123;-77
2022/01/28 15:00:39;;;;;;;4.75;1.08;;;10.20;53.50;;;8.51;59.97;102272.84;8413046;28;20174;-77
2022/01/28 15:04:41;;;;;;;3.55;1.65;;;10.20;53.60;;;8.53;60.26;102295.38;8412668;28;20039;-77
2022/01/28 15:08:43;;;;;;;5.53;2.03;;;10.20;53.70;;;8.50;60.22;102302.38;8416947;28;20473;-77
2022/01/28 15:12:45;;;;;;;1.70;1.10;;;10.10;53.30;;;8.45;60.37;102305.06;8418702;28;20037;-77
2022/01/28 15:16:49;;;;;;;5.22;1.20;;;10.10;53.60;;;8.43;60.19;102321.63;8418535;28;20139;-78
2022/01/28 15:20:50;;;;;;;4.32;1.52;;;9.90;53.40;;;8.40;60.38;102319.94;8418393;28;20115;-77
2022/01/28 15:24:52;;;;;;;1.63;1.48;;;10.00;53.60;;;8.36;60.17;102313.88;8416862;28;20127;-77
2022/01/28 15:29:01;;;;;;;2.38;1.00;;;9.80;53.50;;;8.33;60.07;102319.16;8419831;28;20520;-77
2022/01/28 15:37:23;;;;;;;3.22;1.85;;;9.90;53.80;;;8.25;60.25;102331.47;8419492;28;20123;-77
2022/01/28 15:41:24;;;;;;;1.77;1.05;;;9.80;54.00;;;7.98;60.16;102289.47;8418084;28;20108;-77
2022/01/28 15:45:31;;;;;;;5.57;1.30;;;9.80;53.90;;;8.19;60.04;102350.66;8407243;28;20470;-77
2022/01/28 15:49:34;;;;;;;2.38;1.05;;;9.80;53.90;;;8.17;59.95;102346.38;8396366;28;20119;-77
2022/01/28 15:53:37;;;;;;;3.55;1.70;;;9.80;53.80;;;8.12;60.08;102359.47;8396842;28;20028;-77
2022/01/28 15:57:39;;;;;;;5.57;2.63;;;9.70;53.80;;;8.09;60.23;102359.53;8395631;28;20123;-77
2022/01/28 16:01:41;;;;;;;6.15;2.20;;;9.70;53.80;;;7.91;59.81;102342.53;8396201;28;20120;-77
2022/01/28 16:05:42;;;;;;;3.25;1.85;;;9.60;53.80;;;8.02;59.76;102375.25;8393635;28;20474;-77
2022/01/28 16:09:51;;;;;;;3.20;1.42;;;9.50;53.90;;;8.00;60.07;102369.25;8394806;28;20123;-77
2022/01/28 16:13:59;;;;;;;4.03;1.27;;;9.50;53.90;;;7.93;59.92;102382.34;8394088;28;20370;-77
2022/01/28 16:18:06;;;;;;;3.47;1.27;;;9.50;53.60;;;7.89;60.07;102393.69;8373722;28;20037;-77
2022/01/28 16:22:09;;;;;;;1.13;1.02;;;9.40;53.70;;;7.84;59.73;102400.72;8393583;28;20123;-77
2022/01/28 16:26:10;;;;;;;4.15;1.65;;;9.40;53.90;;;7.85;59.89;102412.84;8391395;28;20047;-77
2022/01/28 16:30:12;;;;;;;2.70;1.73;;;9.20;53.80;;;7.82;59.74;102420.69;8393359;28;20119;-77
2022/01/28 16:34:15;;;;;;;2.70;1.90;;;9.40;53.80;;;7.78;59.63;102432.03;8392861;28;20048;-77
2022/01/28 16:38:19;;;;;;;2.42;1.50;;;9.30;53.70;;;7.72;59.67;102440.81;8385074;28;20050;-77
2022/01/28 16:42:38;;;;;;;3.03;1.13;;;9.30;53.90;;;7.70;59.93;102441.72;8389854;28;20096;-77
2022/01/28 16:46:41;;;;;;;2.38;1.00;;;9.20;53.70;;;7.63;59.80;102440.06;8389111;28;20119;-77
2022/01/28 16:50:44;;;;;;;2.50;1.25;;;9.20;53.80;;;7.65;59.97;102459.97;8389731;28;20040;-77
2022/01/28 16:54:47;;;;;;;1.67;1.20;;;9.00;53.80;;;7.59;59.71;102456.59;8392398;28;20043;-77
2022/01/28 16:58:49;;;;;;;2.67;1.33;;;9.20;53.90;;;7.62;59.71;102466.97;8389500;28;20047;-77
2022/01/28 17:02:53;;;;;;;2.30;1.13;;;9.10;53.80;;;7.51;60.04;102454.97;8393081;28;20460;-77
2022/01/28 17:06:56;;;;;;;2.22;1.23;;;8.90;53.90;;;7.58;59.98;102476.53;8362899;28;20094;-77
2022/01/28 17:11:11;;;;;;;4.93;1.23;;;9.10;54.00;;;7.54;59.71;102478.31;8391865;28;20545;-77
2022/01/28 17:15:13;;;;;;;;;;;9.10;54.00;;;7.37;59.71;102459.53;8392087;28;20078;-77
2022/01/28 17:19:14;;;;;;;2.70;1.23;;;9.10;54.30;;;7.49;59.86;102482.72;8392576;28;19998;-77
2022/01/28 17:23:16;;;;;;;4.35;1.60;;;9.10;54.10;;;7.38;59.41;102463.81;8392030;28;20099;-77
2022/01/28 17:27:18;;;;;;;1.67;1.52;;;9.00;54.10;;;7.44;59.66;102484.53;8392515;28;20123;-77
2022/01/28 17:31:19;;;;;;;1.90;1.10;;;9.00;54.10;;;7.43;59.80;102477.63;8391975;28;20029;-78
2022/01/28 17:35:21;;;;;;;1.67;1.17;;;9.00;54.00;;;7.09;59.68;102428.69;8392632;28;20029;-77
2022/01/28 17:39:22;;;;;;;3.67;2.20;;;8.90;53.80;;;7.37;60.05;102492.41;8389193;28;20558;-77
2022/01/28 17:43:24;;;;;;;3.28;2.00;;;8.90;54.00;;;7.39;59.44;102501.06;8391456;28;20115;-77
2022/01/28 17:47:26;;;;;;;5.45;3.58;;;8.60;53.90;;;7.30;59.91;102492.50;8391574;28;20123;-77
2022/01/28 17:51:27;;;;;;;5.15;3.58;;;8.90;53.90;;;7.36;59.79;102495.91;8390964;28;20040;-77
2022/01/28 17:55:32;;;;;;;8.63;3.65;;;8.90;54.00;;;7.34;59.58;102514.09;8391149;28;20103;-77
2022/01/28 17:59:35;;;;;;;2.72;2.08;;;8.90;54.00;;;7.33;59.96;102502.00;8391530;28;20111;-77
2022/01/28 18:03:36;;;;;;;4.72;2.78;;;8.90;54.10;;;7.16;59.40;102489.25;8389230;28;20040;-77
2022/01/28 18:07:38;;;;;;;3.88;2.58;;;8.90;54.10;;;7.27;59.46;102510.75;8390666;28;20052;-77
2022/01/28 18:11:40;;;;;;;4.78;2.35;;;8.90;54.10;;;6.95;59.91;102460.94;8391768;28;20123;-77
2022/01/28 18:15:42;;;;;;;6.90;1.88;;;8.70;54.00;;;7.30;59.43;102522.84;8391314;28;20111;-77
2022/01/28 18:19:43;;;;;;;3.35;1.80;;;8.80;54.20;;;7.24;59.53;102517.72;8377871;28;20051;-77
2022/01/28 18:23:45;;;;;;;3.20;1.20;;;8.80;54.20;;;7.25;59.49;102516.84;8386964;28;20036;-77
2022/01/28 18:27:46;;;;;;;2.67;1.38;;;8.80;54.30;;;7.21;59.42;102518.63;8387605;28;20033;-77
2022/01/28 18:31:50;;;;;;;3.83;1.48;;;8.80;54.40;;;7.21;59.80;102518.63;8383754;28;20040;-77
2022/01/28 18:35:52;;;;;;;2.70;2.08;;;8.80;54.40;;;7.11;59.45;102495.38;8374726;28;20531;-78
2022/01/28 18:39:53;;;;;;;4.40;1.70;;;8.70;54.50;;;7.20;59.98;102518.63;8377552;28;20045;-77
2022/01/28 18:44:02;;;;;;;3.40;1.42;;;8.60;54.40;;;7.09;59.63;102495.38;8382648;28;20412;-78
2022/01/28 18:48:04;;;;;;;3.60;1.38;;;8.70;54.50;;;7.15;59.92;102513.47;8383099;28;20047;-78
2022/01/28 18:52:10;;;;;;;3.45;1.45;;;8.70;54.50;;;7.13;60.14;102509.19;8380909;28;20047;-78
2022/01/28 18:56:11;;;;;;;2.83;2.00;;;8.80;54.60;;;7.11;59.51;102516.16;8369279;28;20029;-78
2022/01/28 19:00:14;;;;;;;8.70;2.88;;;8.70;54.60;;;6.97;60.01;102488.59;8380724;28;20043;-78
2022/01/28 19:04:15;;;;;;;5.30;1.85;;;8.70;54.60;;;7.06;60.17;102503.22;8357947;28;20102;-78
2022/01/28 19:08:17;;;;;;;4.25;2.00;;;8.70;54.60;;;7.11;59.92;102509.22;8371472;28;20041;-79
2022/01/28 19:12:21;;;;;;;3.72;2.35;;;8.60;54.90;;;6.89;59.57;102480.03;8367186;28;20051;-78
2022/01/28 19:16:22;;;;;;;5.82;2.40;;;8.60;54.60;;;7.03;60.15;102504.09;8366283;28;20044;-78
2022/01/28 19:20:26;;;;;;;5.95;2.67;;;8.60;54.60;;;7.08;59.71;102515.31;8374013;28;20066;-78